createdAt,value
2022-10-25T00:00:19.546Z,3.58
2022-10-25T00:02:46.057Z,4.85
2022-10-25T00:05:14.380Z,2.00
2022-10-25T00:07:40.966Z,7.47
2022-10-25T00:10:07.660Z,3.58
2022-10-25T00:12:34.097Z,4.00
2022-10-25T00:15:01.440Z,3.03
2022-10-25T00:17:27.840Z,4.13
2022-10-25T00:19:54.307Z,2.50
2022-10-25T00:22:20.693Z,7.35
2022-10-25T00:24:47.109Z,6.55
2022-10-25T00:27:13.578Z,3.85
2022-10-25T00:29:40.038Z,4.90
2022-10-25T00:32:06.443Z,2.63
2022-10-25T00:34:32.816Z,7.18
2022-10-25T00:36:59.156Z,3.92
2022-10-25T00:39:25.611Z,5.70
2022-10-25T00:41:51.994Z,4.72
2022-10-25T00:44:36.864Z,5.18
2022-10-25T00:47:04.843Z,2.70
2022-10-25T00:49:32.799Z,2.47
2022-10-25T00:52:01.406Z,5.55
2022-10-25T00:54:33.078Z,2.80
2022-10-25T00:57:01.792Z,3.10
2022-10-25T00:59:28.514Z,3.55
2022-10-25T01:01:55.766Z,4.20
2022-10-25T01:04:24.856Z,9.18
2022-10-25T01:06:51.909Z,5.10
2022-10-25T01:09:30.293Z,2.92
2022-10-25T01:11:56.726Z,3.67
2022-10-25T01:14:23.463Z,4.03
2022-10-25T01:16:49.831Z,3.70
2022-10-25T01:19:34.999Z,5.53
2022-10-25T01:22:04.376Z,3.92
2022-10-25T01:24:37.588Z,2.88
2022-10-25T01:27:03.960Z,2.83
2022-10-25T01:29:41.493Z,2.50
2022-10-25T01:32:10.878Z,4.07
2022-10-25T01:34:40.907Z,3.47
2022-10-25T01:37:46.159Z,3.03
2022-10-25T01:40:18.317Z,4.82
2022-10-25T01:42:49.062Z,3.15
2022-10-25T01:45:24.294Z,3.22
2022-10-25T01:47:52.521Z,7.03
2022-10-25T01:50:27.256Z,5.45
2022-10-25T01:55:24.655Z,2.92
2022-10-25T01:58:09.659Z,7.63
2022-10-25T02:00:43.883Z,3.00
2022-10-25T02:03:13.235Z,3.97
2022-10-25T02:05:45.752Z,7.07
2022-10-25T02:08:23.309Z,2.42
2022-10-25T02:11:02.307Z,4.18
2022-10-25T02:13:33.513Z,5.70
2022-10-25T02:16:05.710Z,2.80
2022-10-25T02:18:34.933Z,6.50
2022-10-25T02:21:02.319Z,4.35
2022-10-25T02:23:29.402Z,3.95
2022-10-25T02:25:56.339Z,4.05
2022-10-25T02:28:24.922Z,4.00
2022-10-25T02:30:52.478Z,4.88
2022-10-25T02:33:18.990Z,4.53
2022-10-25T02:35:45.578Z,5.95
2022-10-25T02:38:12.027Z,4.90
2022-10-25T02:40:38.465Z,5.20
2022-10-25T02:43:04.992Z,4.90
2022-10-25T02:45:31.399Z,3.03
2022-10-25T02:47:57.790Z,4.30
2022-10-25T02:50:24.157Z,5.18
2022-10-25T02:52:50.531Z,11.88
2022-10-25T02:55:16.887Z,6.45
2022-10-25T02:57:43.269Z,10.07
2022-10-25T03:00:10.087Z,5.75
2022-10-25T03:02:36.472Z,5.75
2022-10-25T03:05:02.861Z,3.50
2022-10-25T03:07:29.263Z,2.63
2022-10-25T03:09:55.654Z,7.43
2022-10-25T03:12:22.072Z,5.00
2022-10-25T03:14:48.430Z,6.07
2022-10-25T03:17:14.808Z,3.33
2022-10-25T03:19:41.193Z,5.78
2022-10-25T03:22:07.540Z,2.95
2022-10-25T03:24:33.886Z,7.75
2022-10-25T03:27:00.491Z,4.82
2022-10-25T03:29:26.852Z,5.97
2022-10-25T03:31:53.234Z,7.25
2022-10-25T03:34:19.591Z,3.20
2022-10-25T03:36:45.951Z,5.22
2022-10-25T03:39:12.357Z,3.40
2022-10-25T03:41:38.739Z,4.95
2022-10-25T03:44:05.285Z,3.25
2022-10-25T03:46:31.750Z,5.55
2022-10-25T03:48:58.116Z,5.30
2022-10-25T03:51:24.530Z,5.57
2022-10-25T03:53:50.981Z,4.50
2022-10-25T03:56:17.380Z,5.57
2022-10-25T03:58:43.750Z,4.05
2022-10-25T04:01:12.024Z,6.30
2022-10-25T04:03:38.651Z,4.50
2022-10-25T04:06:05.183Z,6.28
2022-10-25T04:08:31.550Z,4.18
2022-10-25T04:10:57.941Z,4.53
2022-10-25T04:13:24.368Z,8.10
2022-10-25T04:15:50.728Z,5.60
2022-10-25T04:18:17.103Z,7.00
2022-10-25T04:20:43.460Z,5.97
2022-10-25T04:23:09.811Z,6.32
2022-10-25T04:25:36.299Z,6.38
2022-10-25T04:28:02.805Z,5.55
2022-10-25T04:30:29.168Z,5.90
2022-10-25T04:32:56.824Z,4.63
2022-10-25T04:35:23.219Z,4.93
2022-10-25T04:37:51.843Z,8.30
2022-10-25T04:40:22.578Z,7.85
2022-10-25T04:42:51.309Z,5.00
2022-10-25T04:45:17.703Z,4.38
2022-10-25T04:47:44.068Z,7.53
2022-10-25T04:50:10.445Z,6.22
2022-10-25T04:52:36.818Z,5.32
2022-10-25T04:55:03.388Z,5.05
2022-10-25T04:57:29.753Z,4.65
2022-10-25T04:59:57.606Z,4.82
2022-10-25T05:02:24.376Z,5.75
2022-10-25T05:04:50.798Z,8.90
2022-10-25T05:07:17.729Z,4.72
2022-10-25T05:09:46.665Z,11.05
2022-10-25T05:12:13.952Z,4.95
2022-10-25T05:14:40.384Z,5.32
2022-10-25T05:17:06.859Z,6.82
2022-10-25T05:19:33.250Z,10.77
2022-10-25T05:21:59.591Z,6.95
2022-10-25T05:24:26.362Z,7.82
2022-10-25T05:26:52.733Z,6.90
2022-10-25T05:29:19.194Z,11.60
2022-10-25T05:31:45.562Z,7.50
2022-10-25T05:34:12.031Z,10.55
2022-10-25T05:36:38.477Z,10.38
2022-10-25T05:39:05.003Z,6.57
2022-10-25T05:41:34.597Z,6.90
2022-10-25T05:44:03.640Z,8.30
2022-10-25T05:46:30.042Z,8.27
2022-10-25T05:48:59.062Z,10.90
2022-10-25T05:51:35.645Z,8.95
2022-10-25T05:54:07.053Z,4.47
2022-10-25T05:56:33.981Z,4.60
2022-10-25T05:59:10.919Z,7.65
2022-10-25T06:01:38.929Z,9.38
2022-10-25T06:04:05.561Z,8.70
2022-10-25T06:06:32.102Z,6.38
2022-10-25T06:08:59.311Z,6.50
2022-10-25T06:11:26.253Z,5.10
2022-10-25T06:13:52.994Z,7.97
2022-10-25T06:16:20.389Z,11.30
2022-10-25T06:18:46.943Z,10.68
2022-10-25T06:21:13.325Z,8.15
2022-10-25T06:23:40.442Z,8.95
2022-10-25T06:26:11.485Z,6.90
2022-10-25T06:28:39.156Z,10.15
2022-10-25T06:31:12.831Z,10.48
2022-10-25T06:33:39.374Z,6.35
2022-10-25T06:36:07.371Z,9.68
2022-10-25T06:38:34.025Z,10.30
2022-10-25T06:41:01.157Z,9.48
2022-10-25T06:43:27.690Z,6.53
2022-10-25T06:45:54.343Z,7.57
2022-10-25T06:48:20.879Z,9.98
2022-10-25T06:50:49.909Z,7.47
2022-10-25T06:53:18.515Z,8.63
2022-10-25T06:55:47.186Z,8.10
2022-10-25T06:58:13.659Z,4.78
2022-10-25T07:00:40.080Z,10.32
2022-10-25T07:03:06.428Z,9.95
2022-10-25T07:05:32.819Z,13.90
2022-10-25T07:07:59.184Z,9.82
2022-10-25T07:10:25.564Z,15.20
2022-10-25T07:12:51.941Z,7.90
2022-10-25T07:17:46.181Z,3.88
2022-10-25T07:20:12.883Z,8.60
2022-10-25T07:22:39.261Z,4.30
2022-10-25T07:25:05.870Z,6.00
2022-10-25T07:27:32.938Z,6.68
2022-10-25T07:29:59.320Z,7.50
2022-10-25T07:32:25.689Z,5.22
2022-10-25T07:34:52.167Z,9.73
2022-10-25T07:37:18.636Z,5.85
2022-10-25T07:39:45.002Z,7.57
2022-10-25T07:42:11.419Z,11.70
2022-10-25T07:44:37.913Z,5.57
2022-10-25T07:47:04.415Z,9.98
2022-10-25T07:49:30.768Z,9.25
2022-10-25T07:51:57.113Z,9.32
2022-10-25T07:54:23.486Z,5.57
2022-10-25T07:56:49.894Z,6.43
2022-10-25T07:59:16.324Z,6.10
2022-10-25T08:01:42.809Z,5.10
2022-10-25T08:04:09.211Z,10.63
2022-10-25T08:06:36.376Z,6.20
2022-10-25T08:09:14.179Z,6.85
2022-10-25T08:11:41.691Z,6.32
2022-10-25T08:14:08.123Z,6.28
2022-10-25T08:16:34.592Z,5.60
2022-10-25T08:19:00.928Z,4.20
2022-10-25T08:21:27.304Z,6.00
2022-10-25T08:23:53.671Z,5.20
2022-10-25T08:26:25.075Z,12.77
2022-10-25T08:28:51.604Z,3.75
2022-10-25T08:31:18.109Z,6.40
2022-10-25T08:33:44.469Z,6.22
2022-10-25T08:36:10.867Z,4.65
2022-10-25T08:38:37.247Z,8.48
2022-10-25T08:41:06.798Z,7.30
2022-10-25T08:43:33.295Z,5.10
2022-10-25T08:46:22.665Z,6.03
2022-10-25T08:48:51.504Z,8.15
2022-10-25T08:51:37.118Z,6.25
2022-10-25T08:54:06.373Z,7.22
2022-10-25T08:56:33.125Z,7.15
2022-10-25T08:59:02.382Z,11.07
2022-10-25T09:01:31.510Z,8.10
2022-10-25T09:04:01.164Z,9.68
2022-10-25T09:06:27.550Z,6.45
2022-10-25T09:09:18.710Z,10.88
2022-10-25T09:11:48.101Z,6.70
2022-10-25T09:14:23.671Z,7.93
2022-10-25T09:16:55.680Z,6.07
2022-10-25T09:19:40.752Z,6.53
2022-10-25T09:22:21.130Z,9.18
2022-10-25T09:24:57.820Z,7.55
2022-10-25T09:27:24.431Z,3.13
2022-10-25T09:29:54.645Z,4.15
2022-10-25T09:32:27.337Z,4.32
2022-10-25T09:34:54.393Z,6.47
2022-10-25T09:37:25.744Z,3.83
2022-10-25T09:39:54.288Z,10.50
2022-10-25T09:42:25.227Z,5.30
2022-10-25T09:44:55.919Z,7.30
2022-10-25T09:47:41.292Z,10.25
2022-10-25T09:50:15.540Z,7.28
2022-10-25T09:52:51.406Z,5.47
2022-10-25T09:55:27.863Z,4.95
2022-10-25T09:57:54.773Z,5.32
2022-10-25T10:00:21.160Z,3.05
2022-10-25T10:02:47.637Z,5.53
2022-10-25T10:05:18.758Z,5.05
2022-10-25T10:07:46.264Z,9.18
2022-10-25T10:10:15.186Z,5.32
2022-10-25T10:12:45.504Z,4.97
2022-10-25T10:15:20.367Z,5.40
2022-10-25T10:17:47.215Z,5.40
2022-10-25T10:20:15.020Z,4.82
2022-10-25T10:22:50.501Z,4.07
2022-10-25T10:25:22.600Z,4.65
2022-10-25T10:27:49.756Z,1.90
2022-10-25T10:30:22.135Z,4.72
2022-10-25T10:32:55.007Z,3.88
2022-10-25T10:35:31.172Z,3.17
2022-10-25T10:38:16.335Z,3.13
2022-10-25T10:40:43.977Z,5.53
2022-10-25T10:43:31.463Z,2.80
2022-10-25T10:46:05.708Z,2.63
2022-10-25T10:48:36.711Z,3.15
2022-10-25T10:51:15.420Z,3.38
2022-10-25T10:53:52.599Z,2.38
2022-10-25T10:56:22.001Z,2.40
2022-10-25T10:58:53.508Z,2.67
2022-10-25T11:01:32.740Z,1.90
2022-10-25T11:04:01.069Z,9.57
2022-10-25T11:06:34.540Z,3.60
2022-10-25T11:09:12.350Z,2.95
2022-10-25T11:11:39.371Z,3.92
2022-10-25T11:14:13.580Z,4.22
2022-10-25T11:16:42.788Z,2.97
2022-10-25T11:19:18.174Z,1.75
2022-10-25T11:21:44.566Z,3.25
2022-10-25T11:24:29.665Z,4.13
2022-10-25T11:27:02.113Z,5.20
2022-10-25T11:29:43.645Z,2.80
2022-10-25T11:32:22.229Z,5.05
2022-10-25T11:35:04.591Z,1.55
2022-10-25T11:37:38.903Z,5.47
2022-10-25T11:40:22.836Z,3.25
2022-10-25T11:43:08.034Z,1.92
2022-10-25T11:45:34.526Z,2.58
2022-10-25T11:48:00.850Z,2.83
2022-10-25T11:50:30.357Z,2.33
2022-10-25T11:53:15.083Z,4.93
2022-10-25T11:55:41.428Z,3.38
2022-10-25T11:58:10.855Z,3.65
2022-10-25T12:00:49.653Z,2.55
2022-10-25T12:03:24.627Z,4.90
2022-10-25T12:06:09.351Z,7.22
2022-10-25T12:08:48.000Z,2.05
2022-10-25T12:11:18.914Z,4.63
2022-10-25T12:13:47.403Z,3.53
2022-10-25T12:16:15.297Z,3.65
2022-10-25T12:18:45.845Z,4.57
2022-10-25T12:21:15.089Z,2.33
2022-10-25T12:23:43.791Z,2.55
2022-10-25T12:26:13.487Z,3.17
2022-10-25T12:28:44.897Z,3.75
2022-10-25T12:31:11.258Z,5.40
2022-10-25T12:33:37.693Z,4.93
2022-10-25T12:36:06.682Z,3.63
2022-10-25T12:38:37.333Z,4.65
2022-10-25T12:41:07.067Z,3.53
2022-10-25T12:43:42.035Z,4.65
2022-10-25T12:46:22.064Z,4.25
2022-10-25T12:48:51.236Z,5.20
2022-10-25T12:51:38.175Z,7.07
2022-10-25T12:54:13.763Z,4.30
2022-10-25T12:56:59.148Z,3.92
2022-10-25T12:59:50.005Z,2.08
2022-10-25T13:02:16.562Z,4.45
2022-10-25T13:04:52.179Z,4.00
2022-10-25T13:07:18.968Z,4.07
2022-10-25T13:09:45.557Z,3.63
2022-10-25T13:12:14.959Z,2.08
2022-10-25T13:14:54.941Z,4.50
2022-10-25T13:17:21.280Z,6.18
2022-10-25T13:19:55.585Z,4.32
2022-10-25T13:22:34.194Z,4.00
2022-10-25T13:25:07.955Z,4.18
2022-10-25T13:27:35.101Z,9.35
2022-10-25T13:30:01.616Z,3.20
2022-10-25T13:32:32.574Z,3.67
2022-10-25T13:34:59.187Z,3.80
2022-10-25T13:37:31.727Z,4.80
2022-10-25T13:39:59.497Z,2.25
2022-10-25T13:42:32.339Z,3.00
2022-10-25T13:45:04.791Z,4.05
2022-10-25T13:47:39.585Z,2.90
2022-10-25T13:50:11.729Z,2.75
2022-10-25T13:52:38.713Z,3.67
2022-10-25T13:55:10.163Z,2.08
2022-10-25T13:57:55.830Z,6.07
2022-10-25T14:00:28.422Z,5.20
2022-10-25T14:03:02.798Z,3.33
2022-10-25T14:05:47.939Z,3.13
2022-10-25T14:08:21.680Z,2.60
2022-10-25T14:10:49.381Z,3.30
2022-10-25T14:13:19.248Z,8.30
2022-10-25T14:15:49.009Z,3.42
2022-10-25T14:18:17.674Z,5.25
2022-10-25T14:20:45.582Z,7.90
2022-10-25T14:23:18.335Z,3.90
2022-10-25T14:25:53.391Z,3.50
2022-10-25T14:28:25.050Z,4.32
2022-10-25T14:30:55.865Z,4.78
2022-10-25T14:33:25.322Z,3.05
2022-10-25T14:35:53.425Z,8.15
2022-10-25T14:38:24.529Z,5.38
2022-10-25T14:40:58.240Z,4.90
2022-10-25T14:43:24.716Z,6.68
2022-10-25T14:45:55.020Z,3.88
2022-10-25T14:48:21.489Z,6.32
2022-10-25T14:50:47.990Z,5.22
2022-10-25T14:53:18.523Z,4.03
2022-10-25T14:55:55.829Z,5.47
2022-10-25T14:58:23.091Z,3.47
2022-10-25T15:00:53.918Z,4.50
2022-10-25T15:03:20.593Z,3.22
2022-10-25T15:05:47.123Z,4.10
2022-10-25T15:08:24.009Z,3.80
2022-10-25T15:10:57.910Z,5.20
2022-10-25T15:13:28.822Z,3.60
2022-10-25T15:15:56.025Z,6.25
2022-10-25T15:18:25.232Z,5.03
2022-10-25T15:21:06.512Z,4.85
2022-10-25T15:23:34.090Z,5.10
2022-10-25T15:26:18.951Z,5.78
2022-10-25T15:28:49.599Z,5.55
2022-10-25T15:31:22.450Z,4.63
2022-10-25T15:34:01.422Z,6.13
2022-10-25T15:36:29.181Z,4.68
2022-10-25T15:39:16.798Z,5.50
2022-10-25T15:41:43.432Z,4.60
2022-10-25T15:44:09.826Z,4.68
2022-10-25T15:46:38.045Z,6.18
2022-10-25T15:49:06.668Z,8.20
2022-10-25T15:51:34.172Z,5.13
2022-10-25T15:54:00.540Z,5.57
2022-10-25T15:56:26.984Z,12.05
2022-10-25T15:58:53.462Z,7.55
2022-10-25T16:01:20.028Z,8.68
2022-10-25T16:03:46.728Z,7.97
2022-10-25T16:06:14.114Z,9.23
2022-10-25T16:08:40.838Z,5.75
2022-10-25T16:11:11.722Z,5.68
2022-10-25T16:13:38.620Z,11.57
2022-10-25T16:16:21.833Z,10.25
2022-10-25T16:18:53.025Z,9.70
2022-10-25T16:21:21.421Z,8.32
2022-10-25T16:23:48.391Z,6.53
2022-10-25T16:26:20.287Z,7.60
2022-10-25T16:28:46.678Z,6.97
2022-10-25T16:31:13.085Z,3.92
2022-10-25T16:33:39.471Z,5.78
2022-10-25T16:36:06.085Z,7.53
2022-10-25T16:38:32.519Z,7.82
2022-10-25T16:40:58.940Z,5.90
2022-10-25T16:43:25.310Z,6.53
2022-10-25T16:45:51.716Z,5.35
2022-10-25T16:48:18.103Z,8.75
2022-10-25T16:50:44.541Z,8.52
2022-10-25T16:53:12.958Z,11.68
2022-10-25T16:55:39.522Z,7.28
2022-10-25T16:58:05.888Z,7.50
2022-10-25T17:00:35.301Z,12.20
2022-10-25T17:03:02.111Z,6.00
2022-10-25T17:05:29.847Z,10.80
2022-10-25T17:07:56.275Z,13.50
2022-10-25T17:10:22.647Z,9.05
2022-10-25T17:12:50.442Z,10.13
2022-10-25T17:15:17.652Z,12.30
2022-10-25T17:17:45.680Z,7.80
2022-10-25T17:20:13.713Z,7.22
2022-10-25T17:22:41.139Z,8.52
2022-10-25T17:25:08.194Z,16.13
2022-10-25T17:27:39.923Z,8.90
2022-10-25T17:30:07.212Z,11.65
2022-10-25T17:32:33.644Z,7.05
2022-10-25T17:35:01.232Z,9.88
2022-10-25T17:37:28.046Z,7.85
2022-10-25T17:39:54.433Z,5.72
2022-10-25T17:42:20.833Z,6.68
2022-10-25T17:44:47.306Z,7.15
2022-10-25T17:47:14.900Z,8.85
2022-10-25T17:49:41.463Z,9.65
2022-10-25T17:52:08.399Z,19.25
2022-10-25T17:54:34.979Z,20.23
2022-10-25T17:57:02.905Z,11.90
2022-10-25T17:59:30.250Z,8.45
2022-10-25T18:01:57.412Z,6.97
2022-10-25T18:04:24.029Z,5.28
2022-10-25T18:06:50.568Z,8.15
2022-10-25T18:09:16.971Z,7.57
2022-10-25T18:11:43.819Z,7.15
2022-10-25T18:14:10.216Z,6.78
2022-10-25T18:16:36.752Z,8.35
2022-10-25T18:19:04.370Z,5.38
2022-10-25T18:21:31.940Z,8.25
2022-10-25T18:23:59.826Z,7.40
2022-10-25T18:26:26.567Z,6.93
2022-10-25T18:28:53.077Z,7.30
2022-10-25T18:31:20.528Z,12.27
2022-10-25T18:33:50.365Z,9.73
2022-10-25T18:36:19.310Z,9.57
2022-10-25T18:38:46.594Z,8.80
2022-10-25T18:41:14.643Z,6.03
2022-10-25T18:43:41.513Z,7.70
2022-10-25T18:46:07.915Z,9.43
2022-10-25T18:48:34.414Z,20.48
2022-10-25T18:51:09.029Z,16.90
2022-10-25T18:53:35.516Z,13.63
2022-10-25T18:56:01.917Z,9.25
2022-10-25T18:58:31.760Z,6.82
2022-10-25T19:01:05.249Z,7.18
2022-10-25T19:03:31.812Z,12.18
2022-10-25T19:05:58.222Z,10.05
2022-10-25T19:08:24.698Z,18.73
2022-10-25T19:10:51.284Z,12.25
2022-10-25T19:13:20.784Z,8.45
2022-10-25T19:15:47.435Z,6.22
2022-10-25T19:18:14.533Z,7.95
2022-10-25T19:20:45.463Z,7.75
2022-10-25T19:23:12.957Z,17.45
2022-10-25T19:25:39.380Z,22.80
2022-10-25T19:28:05.832Z,13.45
2022-10-25T19:30:35.500Z,10.98
2022-10-25T19:33:04.073Z,9.15
2022-10-25T19:35:33.555Z,13.80
2022-10-25T19:38:00.018Z,9.23
2022-10-25T19:40:26.549Z,16.30
2022-10-25T19:42:53.327Z,8.32
2022-10-25T19:45:19.726Z,10.40
2022-10-25T19:47:46.783Z,10.40
2022-10-25T19:50:13.466Z,10.50
2022-10-25T19:52:40.044Z,14.18
2022-10-25T19:55:06.601Z,14.07
2022-10-25T19:57:33.607Z,15.63
2022-10-25T20:00:00.063Z,11.32
2022-10-25T20:02:26.654Z,12.82
2022-10-25T20:04:53.137Z,14.50
2022-10-25T20:07:19.637Z,13.85
2022-10-25T20:09:46.048Z,15.00
2022-10-25T20:12:12.479Z,8.43
2022-10-25T20:14:38.914Z,13.30
2022-10-25T20:17:05.504Z,13.40
2022-10-25T20:19:32.153Z,9.65
2022-10-25T20:21:58.680Z,8.18
2022-10-25T20:24:25.144Z,7.07
2022-10-25T20:26:51.814Z,10.38
2022-10-25T20:29:21.274Z,6.55
2022-10-25T20:31:48.559Z,10.20
2022-10-25T20:34:17.531Z,6.65
2022-10-25T20:36:44.290Z,11.25
2022-10-25T20:39:14.426Z,6.82
2022-10-25T20:41:41.003Z,8.60
2022-10-25T20:44:08.736Z,8.32
2022-10-25T20:46:35.460Z,11.95
2022-10-25T20:49:03.273Z,11.40
2022-10-25T20:51:29.680Z,7.80
2022-10-25T20:53:57.000Z,10.15
2022-10-25T20:56:23.486Z,9.60
2022-10-25T20:58:50.125Z,8.63
2022-10-25T21:01:16.620Z,7.28
2022-10-25T21:03:43.270Z,7.20
2022-10-25T21:06:14.312Z,5.85
2022-10-25T21:08:41.136Z,6.90
2022-10-25T21:11:09.485Z,9.30
2022-10-25T21:13:36.106Z,6.25
2022-10-25T21:16:06.265Z,8.23
2022-10-25T21:18:32.667Z,9.25
2022-10-25T21:21:03.030Z,7.00
2022-10-25T21:23:31.038Z,5.22
2022-10-25T21:26:01.318Z,8.05
2022-10-25T21:28:30.815Z,9.63
2022-10-25T21:31:00.080Z,7.55
2022-10-25T21:33:26.442Z,5.53
2022-10-25T21:35:52.824Z,8.25
2022-10-25T21:38:19.487Z,7.03
2022-10-25T21:40:45.852Z,7.10
2022-10-25T21:43:12.207Z,8.38
2022-10-25T21:45:42.063Z,10.05
2022-10-25T21:48:08.513Z,8.45
2022-10-25T21:50:34.875Z,14.10
2022-10-25T21:53:01.292Z,8.50
2022-10-25T21:55:27.693Z,7.93
2022-10-25T21:57:54.577Z,10.50
2022-10-25T22:00:21.318Z,11.15
2022-10-25T22:02:47.693Z,7.53
2022-10-25T22:05:14.189Z,9.05
2022-10-25T22:07:40.526Z,6.38
2022-10-25T22:10:07.046Z,9.60
2022-10-25T22:12:33.403Z,8.40
2022-10-25T22:14:59.885Z,11.02
2022-10-25T22:17:26.234Z,8.70
2022-10-25T22:19:52.643Z,5.47
2022-10-25T22:22:19.007Z,11.68
2022-10-25T22:24:45.547Z,10.75
2022-10-25T22:27:11.917Z,7.28
2022-10-25T22:29:38.282Z,8.13
2022-10-25T22:32:04.707Z,9.68
2022-10-25T22:34:31.113Z,12.32
2022-10-25T22:36:57.522Z,7.70
2022-10-25T22:39:23.934Z,9.30
2022-10-25T22:41:52.902Z,8.95
2022-10-25T22:44:19.319Z,13.40
2022-10-25T22:46:45.686Z,8.77
2022-10-25T22:49:12.098Z,10.57
2022-10-25T22:51:38.861Z,10.60
2022-10-25T22:54:05.433Z,9.23
2022-10-25T22:56:32.244Z,7.68
2022-10-25T22:59:02.889Z,9.15
2022-10-25T23:01:30.511Z,8.05
2022-10-25T23:03:57.847Z,8.75
2022-10-25T23:06:25.873Z,9.65
2022-10-25T23:08:53.228Z,6.47
2022-10-25T23:11:20.896Z,5.57
2022-10-25T23:13:47.835Z,9.45
2022-10-25T23:16:14.747Z,9.52
2022-10-25T23:18:41.596Z,7.95
2022-10-25T23:21:10.575Z,8.27
2022-10-25T23:23:38.559Z,19.67
2022-10-25T23:28:37.047Z,39.25
2022-10-25T23:31:06.984Z,23.08
2022-10-25T23:33:33.439Z,11.02
2022-10-25T23:36:09.382Z,13.32
2022-10-25T23:38:36.011Z,6.05
2022-10-25T23:41:02.372Z,7.15
2022-10-25T23:43:29.366Z,13.75
2022-10-25T23:45:55.765Z,6.50
2022-10-25T23:48:22.139Z,7.32
2022-10-25T23:50:59.056Z,8.68
2022-10-25T23:53:25.672Z,7.30
2022-10-25T23:55:52.130Z,10.75
2022-10-25T23:58:18.542Z,7.38
